createdAt,value
2024-01-24T00:00:19.262Z,12.22
2024-01-24T00:02:49.596Z,12.27
2024-01-24T00:05:17.317Z,12.33
2024-01-24T00:07:44.544Z,12.27
2024-01-24T00:10:11.845Z,12.30
2024-01-24T00:12:38.905Z,12.29
2024-01-24T00:15:06.651Z,12.25
2024-01-24T00:17:33.552Z,12.32
2024-01-24T00:20:00.446Z,12.32
2024-01-24T00:22:27.367Z,12.33
2024-01-24T00:24:54.317Z,12.34
2024-01-24T00:27:21.562Z,12.36
2024-01-24T00:29:49.277Z,12.26
2024-01-24T00:32:17.063Z,12.25
2024-01-24T00:34:44.084Z,11.97
2024-01-24T00:37:11.211Z,11.98
2024-01-24T00:39:38.464Z,12.05
2024-01-24T00:42:05.574Z,12.10
2024-01-24T00:44:32.449Z,12.19
2024-01-24T00:46:59.363Z,12.20
2024-01-24T00:49:26.556Z,12.11
2024-01-24T00:51:53.677Z,12.16
2024-01-24T00:54:20.583Z,12.15
2024-01-24T00:56:47.513Z,12.24
2024-01-24T00:57:13.499Z,21.3
2024-01-24T00:59:14.508Z,12.29
2024-01-24T01:01:41.547Z,12.21
2024-01-24T01:04:08.587Z,12.21
2024-01-24T01:06:37.551Z,12.25
2024-01-24T01:09:04.508Z,12.28
2024-01-24T01:11:31.441Z,12.25
2024-01-24T01:13:58.389Z,12.23
2024-01-24T01:16:25.278Z,12.23
2024-01-24T01:18:52.265Z,12.23
2024-01-24T01:21:19.344Z,12.30
2024-01-24T01:23:46.330Z,12.28
2024-01-24T01:26:13.285Z,12.23
2024-01-24T01:28:40.200Z,12.31
2024-01-24T01:31:07.076Z,12.00
2024-01-24T01:33:34.296Z,12.00
2024-01-24T01:38:31.239Z,12.16
2024-01-24T01:40:58.146Z,12.26
2024-01-24T01:43:25.215Z,12.30
2024-01-24T01:45:52.211Z,12.33
2024-01-24T01:48:19.263Z,12.11
2024-01-24T01:50:47.572Z,12.11
2024-01-24T01:53:15.604Z,12.15
2024-01-24T01:55:42.570Z,12.15
2024-01-24T01:58:09.499Z,12.05
2024-01-24T02:00:36.389Z,12.09
2024-01-24T02:03:03.359Z,12.08
2024-01-24T02:05:30.334Z,12.13
2024-01-24T02:07:57.233Z,11.97
2024-01-24T02:10:24.175Z,12.08
2024-01-24T02:12:51.186Z,12.15
2024-01-24T02:15:18.261Z,12.18
2024-01-24T02:17:45.324Z,12.19
2024-01-24T02:20:12.269Z,12.16
2024-01-24T02:22:39.239Z,12.21
2024-01-24T02:25:06.201Z,12.11
2024-01-24T02:27:33.168Z,12.20
2024-01-24T02:30:00.352Z,12.09
2024-01-24T02:32:27.438Z,11.79
2024-01-24T02:34:54.429Z,12.01
2024-01-24T02:37:21.910Z,12.09
2024-01-24T02:39:49.093Z,12.18
2024-01-24T02:42:16.182Z,12.22
2024-01-24T02:44:43.164Z,12.25
2024-01-24T02:47:10.190Z,12.01
2024-01-24T02:49:37.284Z,12.12
2024-01-24T02:52:04.355Z,12.15
2024-01-24T02:54:31.428Z,12.11
2024-01-24T02:56:58.323Z,12.15
2024-01-24T02:59:25.222Z,12.31
2024-01-24T03:01:52.134Z,12.41
2024-01-24T03:04:19.002Z,12.30
2024-01-24T03:06:45.976Z,12.06
2024-01-24T03:09:13.015Z,12.10
2024-01-24T03:11:39.976Z,12.12
2024-01-24T03:14:06.953Z,12.22
2024-01-24T03:16:33.930Z,12.12
2024-01-24T03:19:00.821Z,12.14
2024-01-24T03:21:27.771Z,12.14
2024-01-24T03:23:54.732Z,12.13
2024-01-24T03:26:22.514Z,12.23
2024-01-24T03:28:50.486Z,11.84
2024-01-24T03:31:17.354Z,11.94
2024-01-24T03:33:44.530Z,12.24
2024-01-24T03:36:11.897Z,12.29
2024-01-24T03:38:38.928Z,12.28
2024-01-24T03:41:05.909Z,12.28
2024-01-24T03:43:33.047Z,12.36
2024-01-24T03:46:00.324Z,12.31
2024-01-24T03:48:27.437Z,12.34
2024-01-24T03:50:54.463Z,12.17
2024-01-24T03:53:21.802Z,12.27
2024-01-24T03:55:49.081Z,12.34
2024-01-24T03:58:16.050Z,12.34
2024-01-24T04:00:43.133Z,12.28
2024-01-24T04:03:19.512Z,12.34
2024-01-24T04:06:05.514Z,12.32
2024-01-24T04:08:34.145Z,12.40
2024-01-24T04:11:11.215Z,12.46
2024-01-24T04:13:48.836Z,12.49
2024-01-24T06:00:04.339Z,12.37
2024-01-24T06:02:31.232Z,12.32
2024-01-24T06:04:58.269Z,12.42
2024-01-24T06:07:25.556Z,12.29
2024-01-24T06:09:52.946Z,12.31
2024-01-24T06:12:19.913Z,12.43
2024-01-24T06:14:46.891Z,12.42
2024-01-24T06:17:13.833Z,12.41
2024-01-24T06:19:41.194Z,12.44
2024-01-24T06:22:08.207Z,12.39
2024-01-24T06:24:35.164Z,12.39
2024-01-24T06:27:02.081Z,12.32
2024-01-24T06:30:15.425Z,12.29
2024-01-24T06:32:16.189Z,12.32
2024-01-24T06:34:43.185Z,12.34
2024-01-24T06:37:10.312Z,12.20
2024-01-24T06:39:37.305Z,12.10
2024-01-24T06:42:04.312Z,12.06
2024-01-24T12:37:16.386Z,21.6
2024-01-24T12:47:46.530Z,21.6
2024-01-24T12:57:59.783Z,21.5
2024-01-24T13:28:25.411Z,21.5
2024-01-24T13:38:31.454Z,21.5
2024-01-24T13:48:37.628Z,21.5
2024-01-24T13:58:43.759Z,21.5
2024-01-24T14:08:49.904Z,21.6
2024-01-24T14:18:56.072Z,21.6
2024-01-24T14:29:02.167Z,21.6
2024-01-24T14:39:08.305Z,21.6
2024-01-24T14:49:14.520Z,21.6
2024-01-24T14:59:20.596Z,21.6
2024-01-24T15:09:26.769Z,21.6
2024-01-24T15:19:32.977Z,21.6
2024-01-24T15:29:39.043Z,21.6
2024-01-24T15:39:45.162Z,21.6
2024-01-24T15:49:51.331Z,21.6
2024-01-24T15:59:57.415Z,21.6
2024-01-24T16:10:03.677Z,21.6
2024-01-24T16:20:09.747Z,21.6
2024-01-24T16:30:15.889Z,21.6
2024-01-24T16:40:21.994Z,21.6
2024-01-24T16:50:28.148Z,21.6
2024-01-24T17:00:34.413Z,21.6
2024-01-24T17:10:40.405Z,21.6
2024-01-24T17:30:52.739Z,21.6
2024-01-24T17:37:26.186Z,15.07
2024-01-24T17:39:53.360Z,15.00
2024-01-24T17:40:58.858Z,21.6
2024-01-24T17:42:20.545Z,14.90
2024-01-24T17:44:47.868Z,14.92
2024-01-24T17:47:19.195Z,14.93
2024-01-24T17:49:49.131Z,14.95
2024-01-24T17:51:04.970Z,21.6
2024-01-24T17:55:26.655Z,14.89
2024-01-24T17:57:54.520Z,14.95
2024-01-24T18:00:24.186Z,14.82
2024-01-24T18:01:11.218Z,21.6
2024-01-24T18:02:56.896Z,14.60
2024-01-24T18:11:17.314Z,21.6
2024-01-24T18:21:23.456Z,21.6
2024-01-24T18:31:29.558Z,21.6
2024-01-24T18:41:35.655Z,21.6
2024-01-24T18:51:41.840Z,21.6
2024-01-24T19:01:48.029Z,21.7
2024-01-24T19:11:54.130Z,21.7
2024-01-24T19:52:12.744Z,15.26
2024-01-24T19:54:40.027Z,15.34
2024-01-24T19:57:07.081Z,15.31
2024-01-24T19:59:34.125Z,15.10
2024-01-24T20:02:01.128Z,15.13
2024-01-24T20:04:28.081Z,15.27
2024-01-24T20:06:55.128Z,15.24
2024-01-24T20:09:22.121Z,15.08
2024-01-24T20:11:49.122Z,14.87
2024-01-24T20:14:16.240Z,14.90
2024-01-24T20:16:43.162Z,14.90
2024-01-24T20:19:10.148Z,14.96
2024-01-24T20:21:37.239Z,15.15
2024-01-24T20:24:04.162Z,15.22
2024-01-24T20:26:31.132Z,15.23
2024-01-24T20:29:08.638Z,15.22
2024-01-24T20:31:49.880Z,15.13
2024-01-24T20:37:13.356Z,15.13
2024-01-24T20:39:40.360Z,15.18
2024-01-24T20:42:11.200Z,15.21
2024-01-24T20:44:41.016Z,14.96
2024-01-24T20:47:07.835Z,15.15
2024-01-24T20:49:34.732Z,15.18
2024-01-24T20:52:01.746Z,15.13
2024-01-24T20:52:55.477Z,21.7
2024-01-24T20:54:28.483Z,15.14
2024-01-24T20:56:55.183Z,15.33
2024-01-24T20:59:23.207Z,15.51
2024-01-24T21:01:53.096Z,15.49
2024-01-24T21:04:20.063Z,15.55
2024-01-24T21:06:51.401Z,15.58
2024-01-24T21:09:18.825Z,15.50
2024-01-24T21:11:47.068Z,15.46
2024-01-24T21:14:15.693Z,15.51
2024-01-24T21:16:48.332Z,15.35
2024-01-24T21:19:20.189Z,15.41
2024-01-24T21:21:50.891Z,15.17
2024-01-24T22:03:08.007Z,15.19
2024-01-24T22:05:35.053Z,14.96
2024-01-24T22:08:01.874Z,14.98
2024-01-24T22:10:28.742Z,14.76
2024-01-24T22:12:55.488Z,14.96
2024-01-24T22:15:23.539Z,14.89
2024-01-24T22:17:51.021Z,14.54
2024-01-24T22:20:17.867Z,14.81
2024-01-24T22:22:44.739Z,14.93
2024-01-24T22:25:11.574Z,15.06
2024-01-24T22:27:38.448Z,15.12
2024-01-24T22:30:05.353Z,15.04
2024-01-24T22:32:32.237Z,15.01
2024-01-24T22:34:59.085Z,14.94
2024-01-24T22:37:25.950Z,15.08
2024-01-24T22:39:52.832Z,15.06
2024-01-24T22:42:19.787Z,15.05
2024-01-24T22:44:46.596Z,15.08
2024-01-24T22:47:13.495Z,15.26
2024-01-24T22:49:40.394Z,15.26
2024-01-24T22:52:07.321Z,15.32
2024-01-24T22:54:34.152Z,15.13
2024-01-24T22:57:00.950Z,15.32
2024-01-24T22:59:27.927Z,15.39
